sensor_id;sensor_type;location;lat;lon;timestamp;pressure;altitude;pressure_sealevel;temperature;humidity
37858;BME280;23695;55.868;37.472;2024-03-25T00:02:14;97784.16;;;2.57;78.33
37858;BME280;23695;55.868;37.472;2024-03-25T00:04:43;97790.25;;;2.83;77.19
37858;BME280;23695;55.868;37.472;2024-03-25T00:07:09;97797.00;;;2.72;77.38
37858;BME280;23695;55.868;37.472;2024-03-25T00:09:35;97796.03;;;2.42;77.66
37858;BME280;23695;55.868;37.472;2024-03-25T00:12:00;97791.31;;;2.56;77.61
37858;BME280;23695;55.868;37.472;2024-03-25T00:14:26;97799.03;;;2.58;77.52
37858;BME280;23695;55.868;37.472;2024-03-25T00:16:55;97794.84;;;2.08;78.76
37858;BME280;23695;55.868;37.472;2024-03-25T00:19:21;97803.34;;;2.27;78.65
37858;BME280;23695;55.868;37.472;2024-03-25T00:21:46;97804.50;;;2.44;78.77
37858;BME280;23695;55.868;37.472;2024-03-25T00:24:12;97806.66;;;2.24;78.97
37858;BME280;23695;55.868;37.472;2024-03-25T00:26:38;97811.56;;;1.91;79.51
37858;BME280;23695;55.868;37.472;2024-03-25T00:29:04;97808.00;;;2.05;79.05
37858;BME280;23695;55.868;37.472;2024-03-25T00:31:30;97814.25;;;2.00;79.73
37858;BME280;23695;55.868;37.472;2024-03-25T00:33:55;97822.56;;;2.07;79.44
37858;BME280;23695;55.868;37.472;2024-03-25T00:36:21;97820.78;;;1.94;79.22
37858;BME280;23695;55.868;37.472;2024-03-25T00:38:47;97835.25;;;2.02;79.79
37858;BME280;23695;55.868;37.472;2024-03-25T00:41:12;97833.66;;;2.01;79.75
37858;BME280;23695;55.868;37.472;2024-03-25T00:43:38;97839.72;;;1.84;80.33
37858;BME280;23695;55.868;37.472;2024-03-25T00:46:04;97841.84;;;2.04;79.93
37858;BME280;23695;55.868;37.472;2024-03-25T00:48:30;97855.16;;;2.04;79.63
37858;BME280;23695;55.868;37.472;2024-03-25T00:50:55;97854.72;;;2.19;78.87
37858;BME280;23695;55.868;37.472;2024-03-25T00:53:21;97858.06;;;1.94;79.25
37858;BME280;23695;55.868;37.472;2024-03-25T00:55:47;97873.97;;;2.08;78.82
37858;BME280;23695;55.868;37.472;2024-03-25T00:58:13;97881.56;;;1.92;79.03
37858;BME280;23695;55.868;37.472;2024-03-25T01:00:38;97886.03;;;2.05;78.21
37858;BME280;23695;55.868;37.472;2024-03-25T01:03:04;97891.22;;;1.79;79.54
37858;BME280;23695;55.868;37.472;2024-03-25T01:05:30;97903.69;;;2.01;78.71
37858;BME280;23695;55.868;37.472;2024-03-25T01:07:56;97910.38;;;1.90;78.94
37858;BME280;23695;55.868;37.472;2024-03-25T01:10:21;97910.94;;;1.78;79.29
37858;BME280;23695;55.868;37.472;2024-03-25T01:12:47;97907.41;;;2.22;78.13
37858;BME280;23695;55.868;37.472;2024-03-25T01:15:13;97921.88;;;1.77;78.71
37858;BME280;23695;55.868;37.472;2024-03-25T01:17:39;97927.53;;;2.06;78.44
37858;BME280;23695;55.868;37.472;2024-03-25T01:20:05;97932.72;;;1.80;78.67
37858;BME280;23695;55.868;37.472;2024-03-25T01:22:31;97930.09;;;1.66;79.68
37858;BME280;23695;55.868;37.472;2024-03-25T01:24:57;97944.44;;;1.79;79.15
37858;BME280;23695;55.868;37.472;2024-03-25T01:27:23;97936.28;;;1.53;80.70
37858;BME280;23695;55.868;37.472;2024-03-25T01:29:49;97947.16;;;1.65;80.70
37858;BME280;23695;55.868;37.472;2024-03-25T01:32:15;97950.38;;;1.54;80.96
37858;BME280;23695;55.868;37.472;2024-03-25T01:34:41;97944.81;;;1.41;81.54
37858;BME280;23695;55.868;37.472;2024-03-25T01:37:06;97957.97;;;1.47;82.17
37858;BME280;23695;55.868;37.472;2024-03-25T01:39:32;97956.13;;;1.69;81.54
37858;BME280;23695;55.868;37.472;2024-03-25T01:41:58;97958.59;;;1.66;80.96
37858;BME280;23695;55.868;37.472;2024-03-25T01:44:24;97954.16;;;1.84;80.68
37858;BME280;23695;55.868;37.472;2024-03-25T01:46:50;97964.97;;;1.79;80.38
37858;BME280;23695;55.868;37.472;2024-03-25T01:49:16;97955.22;;;1.74;81.39
37858;BME280;23695;55.868;37.472;2024-03-25T01:51:42;97961.81;;;1.54;81.88
37858;BME280;23695;55.868;37.472;2024-03-25T01:54:08;97963.53;;;1.59;82.47
37858;BME280;23695;55.868;37.472;2024-03-25T01:56:34;97968.72;;;1.78;81.08
37858;BME280;23695;55.868;37.472;2024-03-25T01:59:01;97963.38;;;1.55;82.20
37858;BME280;23695;55.868;37.472;2024-03-25T02:01:28;97957.94;;;1.83;81.74
37858;BME280;23695;55.868;37.472;2024-03-25T02:03:55;97962.00;;;1.80;81.45
37858;BME280;23695;55.868;37.472;2024-03-25T02:06:21;97961.84;;;1.40;82.26
37858;BME280;23695;55.868;37.472;2024-03-25T02:08:51;97971.97;;;1.75;81.51
37858;BME280;23695;55.868;37.472;2024-03-25T02:11:18;97973.00;;;1.87;80.44
37858;BME280;23695;55.868;37.472;2024-03-25T02:13:44;97977.88;;;1.94;80.64
37858;BME280;23695;55.868;37.472;2024-03-25T02:16:09;97978.38;;;1.96;79.83
37858;BME280;23695;55.868;37.472;2024-03-25T02:18:55;97980.22;;;2.18;80.08
37858;BME280;23695;55.868;37.472;2024-03-25T02:21:21;97984.97;;;1.98;79.93
37858;BME280;23695;55.868;37.472;2024-03-25T02:23:48;97985.06;;;2.16;79.36
37858;BME280;23695;55.868;37.472;2024-03-25T02:26:13;97989.72;;;2.10;79.73
37858;BME280;23695;55.868;37.472;2024-03-25T02:28:39;97988.78;;;2.06;78.91
37858;BME280;23695;55.868;37.472;2024-03-25T02:31:05;97992.75;;;2.17;79.44
37858;BME280;23695;55.868;37.472;2024-03-25T02:33:31;97999.88;;;2.31;78.29
37858;BME280;23695;55.868;37.472;2024-03-25T02:35:57;97997.47;;;2.20;77.88
37858;BME280;23695;55.868;37.472;2024-03-25T02:38:25;98002.97;;;2.24;78.99
37858;BME280;23695;55.868;37.472;2024-03-25T02:40:51;98000.53;;;2.36;78.13
37858;BME280;23695;55.868;37.472;2024-03-25T02:43:18;98018.69;;;2.34;77.48
37858;BME280;23695;55.868;37.472;2024-03-25T02:45:44;98022.34;;;2.16;77.63
37858;BME280;23695;55.868;37.472;2024-03-25T02:48:09;98023.44;;;2.15;78.22
37858;BME280;23695;55.868;37.472;2024-03-25T02:50:38;98030.81;;;2.40;77.76
37858;BME280;23695;55.868;37.472;2024-03-25T02:53:03;98032.59;;;2.00;77.42
37858;BME280;23695;55.868;37.472;2024-03-25T02:55:29;98029.50;;;1.84;78.67
37858;BME280;23695;55.868;37.472;2024-03-25T02:57:55;98039.19;;;2.25;77.25
37858;BME280;23695;55.868;37.472;2024-03-25T03:00:20;98040.75;;;2.26;77.00
37858;BME280;23695;55.868;37.472;2024-03-25T03:02:46;98049.00;;;2.16;77.69
37858;BME280;23695;55.868;37.472;2024-03-25T03:05:12;98046.59;;;2.37;77.18
37858;BME280;23695;55.868;37.472;2024-03-25T03:07:38;98048.94;;;2.07;78.16
37858;BME280;23695;55.868;37.472;2024-03-25T03:10:04;98058.00;;;2.28;77.75
37858;BME280;23695;55.868;37.472;2024-03-25T03:12:29;98050.00;;;2.51;76.64
37858;BME280;23695;55.868;37.472;2024-03-25T03:14:55;98060.38;;;2.61;75.92
37858;BME280;23695;55.868;37.472;2024-03-25T03:17:21;98063.59;;;2.80;74.65
37858;BME280;23695;55.868;37.472;2024-03-25T03:19:49;98064.56;;;2.53;74.71
37858;BME280;23695;55.868;37.472;2024-03-25T03:22:15;98070.88;;;1.90;75.59
37858;BME280;23695;55.868;37.472;2024-03-25T03:24:40;98079.91;;;2.03;75.74
37858;BME280;23695;55.868;37.472;2024-03-25T03:27:06;98083.75;;;2.33;75.07
37858;BME280;23695;55.868;37.472;2024-03-25T03:29:32;98091.53;;;2.07;75.04
37858;BME280;23695;55.868;37.472;2024-03-25T03:31:58;98096.38;;;2.05;75.34
37858;BME280;23695;55.868;37.472;2024-03-25T03:34:24;98097.84;;;2.34;75.02
37858;BME280;23695;55.868;37.472;2024-03-25T03:36:49;98108.63;;;2.51;74.81
37858;BME280;23695;55.868;37.472;2024-03-25T03:39:15;98108.94;;;2.49;74.87
37858;BME280;23695;55.868;37.472;2024-03-25T03:41:41;98110.00;;;2.48;74.52
37858;BME280;23695;55.868;37.472;2024-03-25T03:44:07;98120.31;;;2.41;73.93
37858;BME280;23695;55.868;37.472;2024-03-25T03:49:41;98128.78;;;2.66;73.95
37858;BME280;23695;55.868;37.472;2024-03-25T03:52:41;98139.22;;;2.31;74.68
37858;BME280;23695;55.868;37.472;2024-03-25T04:11:14;98163.97;;;2.76;73.23
37858;BME280;23695;55.868;37.472;2024-03-25T04:13:48;98165.69;;;3.03;72.73
37858;BME280;23695;55.868;37.472;2024-03-25T04:16:14;98174.78;;;3.42;72.46
37858;BME280;23695;55.868;37.472;2024-03-25T04:21:23;98184.03;;;3.36;72.48
37858;BME280;23695;55.868;37.472;2024-03-25T04:24:18;98184.47;;;3.29;70.89
37858;BME280;23695;55.868;37.472;2024-03-25T04:29:46;98203.63;;;3.31;72.52
37858;BME280;23695;55.868;37.472;2024-03-25T04:32:12;98203.53;;;3.14;71.63
37858;BME280;23695;55.868;37.472;2024-03-25T04:34:41;98202.63;;;3.58;71.49
37858;BME280;23695;55.868;37.472;2024-03-25T04:37:23;98212.75;;;3.08;71.39
37858;BME280;23695;55.868;37.472;2024-03-25T04:39:52;98219.91;;;3.61;71.69
37858;BME280;23695;55.868;37.472;2024-03-25T04:42:29;98214.34;;;3.40;71.63
37858;BME280;23695;55.868;37.472;2024-03-25T04:45:21;98221.63;;;2.95;73.21
37858;BME280;23695;55.868;37.472;2024-03-25T04:51:13;98232.00;;;2.51;73.37
37858;BME280;23695;55.868;37.472;2024-03-25T04:57:25;98242.09;;;3.08;71.89
37858;BME280;23695;55.868;37.472;2024-03-25T05:00:06;98247.94;;;2.88;71.93
37858;BME280;23695;55.868;37.472;2024-03-25T05:02:50;98255.44;;;3.08;70.92
37858;BME280;23695;55.868;37.472;2024-03-25T05:05:22;98261.28;;;3.41;71.11
37858;BME280;23695;55.868;37.472;2024-03-25T05:10:47;98270.78;;;3.25;70.74
37858;BME280;23695;55.868;37.472;2024-03-25T05:13:36;98261.91;;;3.38;71.14
37858;BME280;23695;55.868;37.472;2024-03-25T05:16:02;98270.50;;;3.66;70.48
37858;BME280;23695;55.868;37.472;2024-03-25T05:18:39;98278.25;;;3.14;70.38
37858;BME280;23695;55.868;37.472;2024-03-25T05:24:25;98285.88;;;3.60;69.62
37858;BME280;23695;55.868;37.472;2024-03-25T05:26:54;98288.00;;;3.19;69.36
37858;BME280;23695;55.868;37.472;2024-03-25T05:29:24;98297.88;;;3.72;69.76
37858;BME280;23695;55.868;37.472;2024-03-25T05:32:03;98297.53;;;3.11;68.70
37858;BME280;23695;55.868;37.472;2024-03-25T05:34:37;98302.69;;;2.85;70.27
37858;BME280;23695;55.868;37.472;2024-03-25T05:37:03;98305.59;;;2.61;70.77
37858;BME280;23695;55.868;37.472;2024-03-25T05:47:39;98331.28;;;2.57;70.41
37858;BME280;23695;55.868;37.472;2024-03-25T05:50:33;98341.59;;;2.86;69.44
37858;BME280;23695;55.868;37.472;2024-03-25T05:56:28;98348.78;;;2.49;70.43
37858;BME280;23695;55.868;37.472;2024-03-25T05:58:53;98356.69;;;3.13;69.65
37858;BME280;23695;55.868;37.472;2024-03-25T06:01:19;98349.13;;;2.70;69.61
37858;BME280;23695;55.868;37.472;2024-03-25T06:03:55;98358.69;;;3.07;69.59
37858;BME280;23695;55.868;37.472;2024-03-25T06:06:23;98366.00;;;3.69;67.95
37858;BME280;23695;55.868;37.472;2024-03-25T06:08:50;98357.19;;;2.79;69.43
37858;BME280;23695;55.868;37.472;2024-03-25T06:11:16;98365.19;;;2.79;69.92
37858;BME280;23695;55.868;37.472;2024-03-25T06:13:42;98367.28;;;2.68;68.87
37858;BME280;23695;55.868;37.472;2024-03-25T06:17:01;98377.41;;;2.94;68.60
37858;BME280;23695;55.868;37.472;2024-03-25T06:19:30;98389.47;;;3.27;68.07
37858;BME280;23695;55.868;37.472;2024-03-25T06:21:56;98392.59;;;4.05;66.94
37858;BME280;23695;55.868;37.472;2024-03-25T06:24:21;98394.09;;;4.20;66.37
37858;BME280;23695;55.868;37.472;2024-03-25T06:26:47;98398.72;;;4.06;66.75
37858;BME280;23695;55.868;37.472;2024-03-25T06:29:13;98410.03;;;4.34;66.38
37858;BME280;23695;55.868;37.472;2024-03-25T06:31:39;98412.28;;;4.58;65.53
37858;BME280;23695;55.868;37.472;2024-03-25T06:34:04;98409.09;;;4.38;64.05
37858;BME280;23695;55.868;37.472;2024-03-25T06:36:39;98427.25;;;4.67;64.64
37858;BME280;23695;55.868;37.472;2024-03-25T06:39:10;98422.78;;;5.20;63.99
37858;BME280;23695;55.868;37.472;2024-03-25T06:41:36;98419.81;;;4.07;65.97
37858;BME280;23695;55.868;37.472;2024-03-25T06:44:02;98434.69;;;4.00;65.69
37858;BME280;23695;55.868;37.472;2024-03-25T06:46:28;98442.94;;;4.12;65.72
37858;BME280;23695;55.868;37.472;2024-03-25T06:48:54;98439.50;;;4.20;66.93
37858;BME280;23695;55.868;37.472;2024-03-25T06:51:19;98452.69;;;4.47;66.41
37858;BME280;23695;55.868;37.472;2024-03-25T06:53:45;98458.56;;;3.96;65.80
37858;BME280;23695;55.868;37.472;2024-03-25T06:56:11;98461.34;;;4.44;66.47
37858;BME280;23695;55.868;37.472;2024-03-25T06:58:37;98460.59;;;4.21;66.38
37858;BME280;23695;55.868;37.472;2024-03-25T07:01:07;98473.75;;;4.89;64.64
37858;BME280;23695;55.868;37.472;2024-03-25T07:03:34;98477.63;;;5.31;63.60
37858;BME280;23695;55.868;37.472;2024-03-25T07:06:00;98482.50;;;4.72;63.75
37858;BME280;23695;55.868;37.472;2024-03-25T07:08:27;98486.81;;;4.50;64.34
37858;BME280;23695;55.868;37.472;2024-03-25T07:10:54;98489.97;;;4.21;66.37
37858;BME280;23695;55.868;37.472;2024-03-25T07:13:20;98490.94;;;4.96;64.87
37858;BME280;23695;55.868;37.472;2024-03-25T07:15:46;98497.78;;;5.72;63.79
37858;BME280;23695;55.868;37.472;2024-03-25T07:18:12;98494.78;;;5.21;64.01
37858;BME280;23695;55.868;37.472;2024-03-25T07:20:40;98498.19;;;5.04;61.62
37858;BME280;23695;55.868;37.472;2024-03-25T07:23:06;98496.53;;;5.69;62.57
37858;BME280;23695;55.868;37.472;2024-03-25T07:25:32;98494.94;;;5.33;63.23
37858;BME280;23695;55.868;37.472;2024-03-25T07:27:58;98501.06;;;5.25;61.48
37858;BME280;23695;55.868;37.472;2024-03-25T07:30:24;98499.94;;;5.09;61.40
37858;BME280;23695;55.868;37.472;2024-03-25T07:32:50;98509.66;;;4.96;62.58
37858;BME280;23695;55.868;37.472;2024-03-25T07:35:15;98511.13;;;5.28;62.98
37858;BME280;23695;55.868;37.472;2024-03-25T07:37:41;98506.78;;;5.76;61.73
37858;BME280;23695;55.868;37.472;2024-03-25T07:40:07;98506.06;;;6.48;60.21
37858;BME280;23695;55.868;37.472;2024-03-25T07:42:33;98516.38;;;6.29;60.29
37858;BME280;23695;55.868;37.472;2024-03-25T07:44:59;98516.13;;;6.51;59.86
37858;BME280;23695;55.868;37.472;2024-03-25T07:47:24;98532.19;;;5.95;60.08
37858;BME280;23695;55.868;37.472;2024-03-25T07:49:50;98521.72;;;6.37;60.16
37858;BME280;23695;55.868;37.472;2024-03-25T07:52:16;98528.03;;;6.79;58.68
37858;BME280;23695;55.868;37.472;2024-03-25T07:54:42;98519.41;;;6.65;58.96
37858;BME280;23695;55.868;37.472;2024-03-25T07:57:07;98535.31;;;5.97;59.47
37858;BME280;23695;55.868;37.472;2024-03-25T07:59:33;98539.09;;;5.96;59.36
37858;BME280;23695;55.868;37.472;2024-03-25T08:01:59;98543.47;;;6.91;58.13
37858;BME280;23695;55.868;37.472;2024-03-25T08:04:24;98549.31;;;5.77;60.76
37858;BME280;23695;55.868;37.472;2024-03-25T08:06:50;98552.19;;;6.71;58.89
37858;BME280;23695;55.868;37.472;2024-03-25T08:09:16;98560.56;;;6.69;58.77
37858;BME280;23695;55.868;37.472;2024-03-25T08:11:42;98569.56;;;6.82;57.13
37858;BME280;23695;55.868;37.472;2024-03-25T08:14:07;98564.13;;;6.35;58.12
37858;BME280;23695;55.868;37.472;2024-03-25T08:16:33;98561.56;;;7.03;56.92
37858;BME280;23695;55.868;37.472;2024-03-25T08:18:59;98563.91;;;7.43;56.54
37858;BME280;23695;55.868;37.472;2024-03-25T08:21:25;98564.66;;;6.84;57.51
37858;BME280;23695;55.868;37.472;2024-03-25T08:23:50;98577.53;;;6.44;57.78
37858;BME280;23695;55.868;37.472;2024-03-25T08:26:16;98580.38;;;6.47;57.65
37858;BME280;23695;55.868;37.472;2024-03-25T08:28:42;98587.00;;;6.41;56.78
37858;BME280;23695;55.868;37.472;2024-03-25T08:31:07;98582.16;;;6.90;57.45
37858;BME280;23695;55.868;37.472;2024-03-25T08:33:33;98590.63;;;6.54;58.28
37858;BME280;23695;55.868;37.472;2024-03-25T08:35:59;98594.75;;;6.98;55.51
37858;BME280;23695;55.868;37.472;2024-03-25T08:38:24;98595.16;;;6.62;57.81
37858;BME280;23695;55.868;37.472;2024-03-25T08:40:51;98596.94;;;6.49;57.54
37858;BME280;23695;55.868;37.472;2024-03-25T08:43:17;98600.72;;;6.40;57.51
37858;BME280;23695;55.868;37.472;2024-03-25T08:45:44;98596.00;;;6.54;58.42
37858;BME280;23695;55.868;37.472;2024-03-25T08:48:09;98605.78;;;6.15;58.85
37858;BME280;23695;55.868;37.472;2024-03-25T08:50:35;98602.81;;;6.98;57.60
37858;BME280;23695;55.868;37.472;2024-03-25T08:53:02;98605.78;;;6.97;56.60
37858;BME280;23695;55.868;37.472;2024-03-25T08:55:28;98596.88;;;6.75;54.72
37858;BME280;23695;55.868;37.472;2024-03-25T08:57:54;98602.09;;;7.48;55.58
37858;BME280;23695;55.868;37.472;2024-03-25T09:00:20;98611.81;;;6.94;55.64
37858;BME280;23695;55.868;37.472;2024-03-25T09:02:46;98604.91;;;6.84;56.63
37858;BME280;23695;55.868;37.472;2024-03-25T09:05:11;98609.75;;;7.88;54.83
37858;BME280;23695;55.868;37.472;2024-03-25T09:07:37;98614.34;;;6.99;53.97
37858;BME280;23695;55.868;37.472;2024-03-25T09:10:03;98608.19;;;7.87;54.62
37858;BME280;23695;55.868;37.472;2024-03-25T09:12:29;98610.34;;;7.73;54.35
37858;BME280;23695;55.868;37.472;2024-03-25T09:14:54;98599.00;;;8.09;53.98
37858;BME280;23695;55.868;37.472;2024-03-25T09:17:20;98613.25;;;7.88;53.77
37858;BME280;23695;55.868;37.472;2024-03-25T09:19:46;98609.16;;;7.61;53.53
37858;BME280;23695;55.868;37.472;2024-03-25T09:22:11;98614.09;;;7.51;53.98
37858;BME280;23695;55.868;37.472;2024-03-25T09:24:37;98613.63;;;8.20;53.47
37858;BME280;23695;55.868;37.472;2024-03-25T09:27:03;98617.38;;;7.56;54.38
37858;BME280;23695;55.868;37.472;2024-03-25T09:29:29;98619.38;;;7.38;53.18
37858;BME280;23695;55.868;37.472;2024-03-25T09:31:55;98617.13;;;7.41;54.62
37858;BME280;23695;55.868;37.472;2024-03-25T09:34:20;98620.91;;;8.19;52.56
37858;BME280;23695;55.868;37.472;2024-03-25T09:36:46;98626.34;;;6.93;55.75
37858;BME280;23695;55.868;37.472;2024-03-25T09:39:12;98622.66;;;7.94;53.56
37858;BME280;23695;55.868;37.472;2024-03-25T09:41:39;98618.81;;;8.25;52.46
37858;BME280;23695;55.868;37.472;2024-03-25T09:44:08;98628.38;;;8.56;52.15
37858;BME280;23695;55.868;37.472;2024-03-25T09:46:34;98626.34;;;8.86;50.98
37858;BME280;23695;55.868;37.472;2024-03-25T09:48:59;98621.91;;;9.26;50.45
37858;BME280;23695;55.868;37.472;2024-03-25T09:51:25;98622.13;;;8.64;50.81
37858;BME280;23695;55.868;37.472;2024-03-25T09:53:51;98619.00;;;8.20;51.12
37858;BME280;23695;55.868;37.472;2024-03-25T09:56:17;98622.38;;;8.83;50.22
37858;BME280;23695;55.868;37.472;2024-03-25T09:58:44;98618.97;;;9.07;49.95
37858;BME280;23695;55.868;37.472;2024-03-25T10:01:10;98619.09;;;9.23;49.23
37858;BME280;23695;55.868;37.472;2024-03-25T10:03:35;98621.44;;;9.61;48.94
37858;BME280;23695;55.868;37.472;2024-03-25T10:06:01;98623.81;;;9.62;48.60
37858;BME280;23695;55.868;37.472;2024-03-25T10:08:27;98630.19;;;8.64;49.53
37858;BME280;23695;55.868;37.472;2024-03-25T10:10:54;98626.03;;;8.33;50.81
37858;BME280;23695;55.868;37.472;2024-03-25T10:13:20;98629.06;;;8.65;48.83
37858;BME280;23695;55.868;37.472;2024-03-25T10:15:48;98632.06;;;8.84;49.83
37858;BME280;23695;55.868;37.472;2024-03-25T10:18:13;98625.22;;;7.91;51.52
37858;BME280;23695;55.868;37.472;2024-03-25T10:20:50;98632.06;;;7.29;52.39
37858;BME280;23695;55.868;37.472;2024-03-25T10:23:20;98635.00;;;8.58;50.27
37858;BME280;23695;55.868;37.472;2024-03-25T10:25:47;98640.00;;;8.06;51.32
37858;BME280;23695;55.868;37.472;2024-03-25T10:28:13;98639.34;;;8.09;50.97
37858;BME280;23695;55.868;37.472;2024-03-25T10:30:40;98634.00;;;8.63;49.15
37858;BME280;23695;55.868;37.472;2024-03-25T10:33:07;98640.09;;;8.72;49.07
37858;BME280;23695;55.868;37.472;2024-03-25T10:35:36;98631.22;;;9.17;48.22
37858;BME280;23695;55.868;37.472;2024-03-25T10:38:10;98639.09;;;9.22;47.45
37858;BME280;23695;55.868;37.472;2024-03-25T10:40:38;98647.84;;;9.43;47.61
37858;BME280;23695;55.868;37.472;2024-03-25T10:43:10;98642.22;;;9.24;46.83
37858;BME280;23695;55.868;37.472;2024-03-25T10:45:38;98654.44;;;9.09;48.24
37858;BME280;23695;55.868;37.472;2024-03-25T10:48:17;98648.50;;;9.16;48.08
37858;BME280;23695;55.868;37.472;2024-03-25T10:50:45;98652.03;;;8.50;49.99
37858;BME280;23695;55.868;37.472;2024-03-25T10:53:12;98648.78;;;8.57;49.93
37858;BME280;23695;55.868;37.472;2024-03-25T10:55:39;98648.72;;;9.11;47.89
37858;BME280;23695;55.868;37.472;2024-03-25T10:58:07;98645.38;;;9.38;47.53
37858;BME280;23695;55.868;37.472;2024-03-25T11:00:34;98652.75;;;9.17;47.58
37858;BME280;23695;55.868;37.472;2024-03-25T11:03:01;98649.41;;;9.32;47.54
37858;BME280;23695;55.868;37.472;2024-03-25T11:05:27;98656.41;;;9.57;47.36
37858;BME280;23695;55.868;37.472;2024-03-25T11:07:52;98659.41;;;9.80;47.03
37858;BME280;23695;55.868;37.472;2024-03-25T11:10:18;98653.94;;;9.64;46.60
37858;BME280;23695;55.868;37.472;2024-03-25T11:12:44;98650.66;;;9.47;47.62
37858;BME280;23695;55.868;37.472;2024-03-25T11:15:10;98659.50;;;9.35;47.41
37858;BME280;23695;55.868;37.472;2024-03-25T11:17:36;98648.75;;;9.35;46.58
37858;BME280;23695;55.868;37.472;2024-03-25T11:20:10;98656.81;;;8.44;48.77
37858;BME280;23695;55.868;37.472;2024-03-25T11:22:50;98658.63;;;8.32;48.92
37858;BME280;23695;55.868;37.472;2024-03-25T11:25:22;98661.78;;;8.34;48.64
37858;BME280;23695;55.868;37.472;2024-03-25T11:27:48;98662.75;;;7.87;50.08
37858;BME280;23695;55.868;37.472;2024-03-25T11:30:14;98661.13;;;8.37;49.27
37858;BME280;23695;55.868;37.472;2024-03-25T11:32:54;98667.63;;;8.57;48.68
37858;BME280;23695;55.868;37.472;2024-03-25T11:35:20;98662.94;;;8.99;48.20
37858;BME280;23695;55.868;37.472;2024-03-25T11:37:46;98667.97;;;9.00;47.75
37858;BME280;23695;55.868;37.472;2024-03-25T11:40:13;98672.84;;;9.07;46.88
37858;BME280;23695;55.868;37.472;2024-03-25T11:42:40;98674.56;;;9.24;47.00
37858;BME280;23695;55.868;37.472;2024-03-25T11:45:07;98672.69;;;9.36;46.93
37858;BME280;23695;55.868;37.472;2024-03-25T11:47:33;98674.78;;;9.43;46.50
37858;BME280;23695;55.868;37.472;2024-03-25T11:49:59;98674.47;;;9.57;47.03
37858;BME280;23695;55.868;37.472;2024-03-25T11:52:30;98677.56;;;9.10;47.17
37858;BME280;23695;55.868;37.472;2024-03-25T11:54:56;98684.09;;;9.21;47.67
37858;BME280;23695;55.868;37.472;2024-03-25T11:57:22;98686.09;;;9.12;47.67
37858;BME280;23695;55.868;37.472;2024-03-25T11:59:49;98682.84;;;9.19;46.99
37858;BME280;23695;55.868;37.472;2024-03-25T12:02:16;98685.03;;;9.38;46.79
37858;BME280;23695;55.868;37.472;2024-03-25T12:04:48;98690.97;;;9.31;46.77
37858;BME280;23695;55.868;37.472;2024-03-25T12:07:30;98692.97;;;9.22;46.17
37858;BME280;23695;55.868;37.472;2024-03-25T12:10:39;98697.56;;;9.21;46.13
37858;BME280;23695;55.868;37.472;2024-03-25T12:13:08;98691.06;;;9.34;46.25
37858;BME280;23695;55.868;37.472;2024-03-25T12:15:35;98696.69;;;9.54;46.15
37858;BME280;23695;55.868;37.472;2024-03-25T12:18:04;98695.69;;;9.58;46.18
37858;BME280;23695;55.868;37.472;2024-03-25T12:20:30;98690.31;;;9.46;46.07
37858;BME280;23695;55.868;37.472;2024-03-25T12:22:56;98690.97;;;9.43;46.15
37858;BME280;23695;55.868;37.472;2024-03-25T12:25:48;98700.81;;;9.27;46.16
37858;BME280;23695;55.868;37.472;2024-03-25T12:28:14;98699.75;;;9.07;47.03
37858;BME280;23695;55.868;37.472;2024-03-25T12:30:49;98697.06;;;8.74;47.40
37858;BME280;23695;55.868;37.472;2024-03-25T12:33:16;98694.47;;;8.98;47.08
37858;BME280;23695;55.868;37.472;2024-03-25T12:35:46;98695.16;;;8.41;47.79
37858;BME280;23695;55.868;37.472;2024-03-25T12:41:12;98690.75;;;8.58;47.57
37858;BME280;23695;55.868;37.472;2024-03-25T12:43:44;98699.19;;;8.68;47.41
37858;BME280;23695;55.868;37.472;2024-03-25T12:46:12;98700.81;;;8.82;47.22
37858;BME280;23695;55.868;37.472;2024-03-25T12:48:38;98700.34;;;8.79;47.30
37858;BME280;23695;55.868;37.472;2024-03-25T12:51:04;98702.78;;;8.93;46.99
37858;BME280;23695;55.868;37.472;2024-03-25T12:53:38;98706.63;;;8.50;47.99
37858;BME280;23695;55.868;37.472;2024-03-25T12:56:04;98710.94;;;8.85;47.49
37858;BME280;23695;55.868;37.472;2024-03-25T12:58:30;98709.03;;;8.85;47.18
37858;BME280;23695;55.868;37.472;2024-03-25T13:00:56;98698.63;;;8.96;47.40
37858;BME280;23695;55.868;37.472;2024-03-25T13:03:22;98695.88;;;8.50;48.60
37858;BME280;23695;55.868;37.472;2024-03-25T13:05:48;98701.06;;;8.89;47.95
37858;BME280;23695;55.868;37.472;2024-03-25T13:08:14;98702.88;;;8.97;47.22
37858;BME280;23695;55.868;37.472;2024-03-25T13:10:39;98700.59;;;8.87;47.36
37858;BME280;23695;55.868;37.472;2024-03-25T13:13:12;98702.84;;;8.64;48.08
37858;BME280;23695;55.868;37.472;2024-03-25T13:15:38;98701.56;;;9.03;47.74
37858;BME280;23695;55.868;37.472;2024-03-25T13:18:06;98702.09;;;8.96;47.75
37858;BME280;23695;55.868;37.472;2024-03-25T13:20:34;98703.91;;;9.04;46.90
37858;BME280;23695;55.868;37.472;2024-03-25T13:23:08;98708.09;;;9.14;46.58
37858;BME280;23695;55.868;37.472;2024-03-25T13:25:36;98704.53;;;9.22;46.60
37858;BME280;23695;55.868;37.472;2024-03-25T13:28:02;98706.88;;;9.36;46.44
37858;BME280;23695;55.868;37.472;2024-03-25T13:30:30;98707.56;;;9.33;46.08
37858;BME280;23695;55.868;37.472;2024-03-25T13:32:57;98703.28;;;9.20;46.31
37858;BME280;23695;55.868;37.472;2024-03-25T13:35:41;98698.88;;;9.15;45.94
37858;BME280;23695;55.868;37.472;2024-03-25T13:38:07;98701.47;;;9.12;46.18
37858;BME280;23695;55.868;37.472;2024-03-25T13:40:33;98703.91;;;9.04;46.19
37858;BME280;23695;55.868;37.472;2024-03-25T13:42:58;98703.34;;;8.66;46.64
37858;BME280;23695;55.868;37.472;2024-03-25T13:45:24;98698.66;;;8.54;47.35
37858;BME280;23695;55.868;37.472;2024-03-25T13:47:50;98700.06;;;8.60;46.38
37858;BME280;23695;55.868;37.472;2024-03-25T13:50:16;98701.19;;;8.59;46.69
37858;BME280;23695;55.868;37.472;2024-03-25T13:52:41;98696.69;;;8.63;46.59
37858;BME280;23695;55.868;37.472;2024-03-25T13:55:07;98702.41;;;8.62;46.51
37858;BME280;23695;55.868;37.472;2024-03-25T13:57:33;98696.50;;;8.68;46.68